createdAt,value
2023-09-04T00:03:27.377Z,100.00
2023-09-04T00:08:32.957Z,100.00
2023-09-04T00:13:37.445Z,100.00
2023-09-04T00:18:41.848Z,100.00
2023-09-04T00:23:47.403Z,100.00
2023-09-04T00:28:51.969Z,100.00
2023-09-04T00:33:56.686Z,100.00
2023-09-04T00:39:02.442Z,100.00
2023-09-04T00:44:07.257Z,100.00
2023-09-04T00:49:11.637Z,100.00
2023-09-04T00:54:17.698Z,100.00
2023-09-04T00:59:22.130Z,100.00
2023-09-04T01:04:26.703Z,100.00
2023-09-04T01:09:33.459Z,100.00
2023-09-04T01:14:37.785Z,100.00
2023-09-04T01:19:43.073Z,100.00
2023-09-04T01:24:48.745Z,100.00
2023-09-04T01:29:58.711Z,100.00
2023-09-04T01:35:04.808Z,100.00
2023-09-04T01:40:11.048Z,100.00
2023-09-04T01:45:15.203Z,100.00
2023-09-04T01:50:19.762Z,100.00
2023-09-04T01:55:25.363Z,100.00
2023-09-04T02:00:29.899Z,100.00
2023-09-04T02:05:33.950Z,100.00
2023-09-04T02:10:39.696Z,100.00
2023-09-04T02:15:43.570Z,100.00
2023-09-04T02:20:48.523Z,100.00
2023-09-04T02:25:54.090Z,100.00
2023-09-04T02:30:58.178Z,100.00
2023-09-04T02:36:02.128Z,100.00
2023-09-04T02:41:07.642Z,100.00
2023-09-04T02:46:13.241Z,100.00
2023-09-04T02:51:17.551Z,100.00
2023-09-04T02:56:23.027Z,100.00
2023-09-04T03:01:27.316Z,100.00
2023-09-04T03:06:31.627Z,100.00
2023-09-04T03:11:37.324Z,100.00
2023-09-04T03:16:41.744Z,100.00
2023-09-04T03:21:45.982Z,100.00
2023-09-04T03:26:51.569Z,100.00
2023-09-04T03:31:55.883Z,100.00
2023-09-04T03:37:02.440Z,100.00
2023-09-04T03:42:08.878Z,100.00
2023-09-04T03:47:13.743Z,100.00
2023-09-04T03:52:17.754Z,100.00
2023-09-04T03:57:23.617Z,100.00
2023-09-04T04:02:28.153Z,100.00
2023-09-04T04:07:32.833Z,100.00
2023-09-04T04:12:38.291Z,100.00
2023-09-04T04:17:42.493Z,100.00
2023-09-04T04:22:46.462Z,100.00
2023-09-04T04:27:51.723Z,100.00
2023-09-04T04:32:55.929Z,100.00
2023-09-04T04:38:00.989Z,100.00
2023-09-04T04:43:07.031Z,100.00
2023-09-04T04:48:11.784Z,100.00
2023-09-04T04:53:16.719Z,100.00
2023-09-04T04:58:23.186Z,100.00
2023-09-04T05:03:28.227Z,100.00
2023-09-04T05:08:32.232Z,100.00
2023-09-04T05:13:37.941Z,100.00
2023-09-04T05:18:43.020Z,100.00
2023-09-04T05:23:48.926Z,100.00
2023-09-04T05:28:54.694Z,100.00
2023-09-04T05:33:58.919Z,100.00
2023-09-04T05:39:02.840Z,100.00
2023-09-04T05:44:08.702Z,100.00
2023-09-04T05:49:12.940Z,100.00
2023-09-04T05:54:16.870Z,100.00
2023-09-04T05:59:22.995Z,100.00
2023-09-04T06:04:27.274Z,100.00
2023-09-04T06:09:31.588Z,100.00
2023-09-04T06:14:36.990Z,100.00
2023-09-04T06:19:41.282Z,100.00
2023-09-04T06:24:45.159Z,100.00
2023-09-04T06:29:50.748Z,100.00
2023-09-04T06:34:54.911Z,100.00
2023-09-04T06:39:59.051Z,100.00
2023-09-04T06:45:04.875Z,100.00
2023-09-04T06:50:10.588Z,100.00
2023-09-04T06:55:14.578Z,100.00
2023-09-04T07:00:21.298Z,100.00
2023-09-04T07:05:25.915Z,100.00
2023-09-04T07:10:30.622Z,100.00
2023-09-04T07:15:35.973Z,100.00
2023-09-04T07:20:40.307Z,100.00
2023-09-04T07:25:44.262Z,100.00
2023-09-04T07:30:49.742Z,100.00
2023-09-04T07:35:56.910Z,100.00
2023-09-04T07:41:01.681Z,100.00
2023-09-04T07:46:07.389Z,100.00
2023-09-04T07:51:27.422Z,100.00
2023-09-04T07:56:42.182Z,100.00
2023-09-04T08:01:48.351Z,100.00
2023-09-04T08:06:52.662Z,100.00
2023-09-04T08:11:56.868Z,100.00
2023-09-04T08:17:02.574Z,100.00
2023-09-04T08:22:07.093Z,100.00
2023-09-04T08:27:11.032Z,100.00
2023-09-04T08:32:16.548Z,100.00
2023-09-04T08:37:20.466Z,98.79
2023-09-04T08:42:24.797Z,97.32
2023-09-04T08:47:31.337Z,99.74
2023-09-04T08:52:37.829Z,100.00
2023-09-04T08:57:43.734Z,98.18
2023-09-04T09:02:49.161Z,95.75
2023-09-04T09:07:54.299Z,98.26
2023-09-04T09:12:58.246Z,83.77
2023-09-04T09:18:04.474Z,84.22
2023-09-04T09:23:08.664Z,81.89
2023-09-04T09:28:13.710Z,80.59
2023-09-04T09:33:22.786Z,77.16
2023-09-04T09:38:29.059Z,76.49
2023-09-04T09:43:35.569Z,76.00
2023-09-04T09:48:42.813Z,75.43
2023-09-04T09:53:47.618Z,77.98
2023-09-04T09:58:52.098Z,76.12
2023-09-04T10:03:58.116Z,76.52
2023-09-04T10:09:03.064Z,72.02
2023-09-04T10:14:13.647Z,70.18
2023-09-04T10:19:23.983Z,71.89
2023-09-04T10:24:36.141Z,74.60
2023-09-04T10:29:50.242Z,75.08
2023-09-04T10:34:58.034Z,73.19
2023-09-04T10:40:03.543Z,74.44
2023-09-04T10:45:14.663Z,73.13
2023-09-04T10:50:35.264Z,72.49
2023-09-04T10:55:40.283Z,72.70
2023-09-04T11:00:45.800Z,73.15
2023-09-04T11:06:21.310Z,73.64
2023-09-04T11:11:27.198Z,69.59
2023-09-04T11:16:50.326Z,70.13
2023-09-04T11:21:55.832Z,70.84
2023-09-04T11:26:59.961Z,69.89
2023-09-04T11:37:34.675Z,67.52
2023-09-04T11:42:39.195Z,63.99
2023-09-04T11:47:44.417Z,62.48
2023-09-04T11:52:50.232Z,64.78
2023-09-04T11:57:54.623Z,61.89
2023-09-04T12:02:59.279Z,62.90
2023-09-04T12:08:05.258Z,65.29
2023-09-04T12:13:10.130Z,61.87
2023-09-04T12:18:14.553Z,62.88
2023-09-04T12:23:20.497Z,62.79
2023-09-04T12:28:28.345Z,60.19
2023-09-04T12:33:32.522Z,61.42
2023-09-04T12:38:38.311Z,59.43
2023-09-04T12:43:43.247Z,59.62
2023-09-04T12:48:48.045Z,60.15
2023-09-04T12:53:53.701Z,57.26
2023-09-04T12:58:57.915Z,56.66
2023-09-04T13:04:05.251Z,57.55
2023-09-04T13:09:11.236Z,58.04
2023-09-04T13:14:15.749Z,58.17
2023-09-04T13:19:20.374Z,58.13
2023-09-04T13:24:25.695Z,57.46
2023-09-04T13:29:29.971Z,52.67
2023-09-04T13:34:34.487Z,55.02
2023-09-04T13:39:40.616Z,57.81
2023-09-04T13:44:44.488Z,57.85
2023-09-04T13:49:48.471Z,55.70
2023-09-04T13:54:56.699Z,57.37
2023-09-04T14:00:00.920Z,59.82
2023-09-04T14:05:06.150Z,57.74
2023-09-04T14:10:11.674Z,57.68
2023-09-04T14:15:16.130Z,57.25
2023-09-04T14:20:20.245Z,58.19
2023-09-04T14:25:25.762Z,60.69
2023-09-04T14:30:30.052Z,62.55
2023-09-04T14:35:35.050Z,60.40
2023-09-04T14:40:48.381Z,59.43
2023-09-04T14:46:04.296Z,56.22
2023-09-04T14:51:14.074Z,59.14
2023-09-04T14:56:19.490Z,62.68
2023-09-04T15:01:24.916Z,66.11
2023-09-04T15:06:29.153Z,63.17
2023-09-04T15:11:35.661Z,63.21
2023-09-04T15:16:40.084Z,61.18
2023-09-04T15:21:44.315Z,63.04
2023-09-04T15:26:49.869Z,63.79
2023-09-04T15:31:54.046Z,66.08
2023-09-04T15:36:58.390Z,66.30
2023-09-04T15:42:03.839Z,68.19
2023-09-04T15:47:08.416Z,68.14
2023-09-04T15:52:12.534Z,64.62
2023-09-04T15:57:18.011Z,70.22
2023-09-04T16:02:22.337Z,67.64
2023-09-04T16:07:26.817Z,75.26
2023-09-04T16:12:32.513Z,77.43
2023-09-04T16:17:37.305Z,80.96
2023-09-04T16:22:42.259Z,84.12
2023-09-04T16:27:47.627Z,86.51
2023-09-04T16:32:52.389Z,83.47
2023-09-04T16:37:57.083Z,92.70
2023-09-04T16:43:02.370Z,100.00
2023-09-04T16:48:07.957Z,100.00
2023-09-04T16:53:12.181Z,100.00
2023-09-04T16:58:17.599Z,100.00
2023-09-04T17:03:22.194Z,100.00
2023-09-04T17:08:26.814Z,100.00
2023-09-04T17:13:33.307Z,100.00
2023-09-04T17:18:37.710Z,100.00
2023-09-04T17:23:41.677Z,100.00
2023-09-04T17:28:47.330Z,100.00
2023-09-04T17:33:51.878Z,100.00
2023-09-04T17:38:55.775Z,100.00
2023-09-04T17:44:01.269Z,100.00
2023-09-04T17:49:06.962Z,100.00
2023-09-04T17:54:11.155Z,100.00
2023-09-04T17:59:16.405Z,100.00
2023-09-04T18:04:20.582Z,100.00
2023-09-04T18:09:24.742Z,100.00
2023-09-04T18:14:31.515Z,100.00
2023-09-04T18:19:37.439Z,100.00
2023-09-04T18:24:41.480Z,100.00
2023-09-04T18:29:46.922Z,100.00
2023-09-04T18:34:50.786Z,100.00
2023-09-04T18:39:54.850Z,100.00
2023-09-04T18:45:00.605Z,100.00
2023-09-04T18:50:05.920Z,100.00
2023-09-04T18:55:10.424Z,100.00
2023-09-04T19:00:17.016Z,100.00
2023-09-04T19:05:21.380Z,100.00
2023-09-04T19:10:25.509Z,100.00
2023-09-04T19:15:30.795Z,100.00
2023-09-04T19:20:35.177Z,100.00
2023-09-04T19:25:39.097Z,100.00
2023-09-04T19:30:46.769Z,100.00
2023-09-04T19:35:50.722Z,100.00
2023-09-04T19:40:54.609Z,100.00
2023-09-04T19:45:59.901Z,100.00
2023-09-04T19:51:04.518Z,100.00
2023-09-04T19:56:08.808Z,100.00
2023-09-04T20:01:14.405Z,100.00
2023-09-04T20:06:20.272Z,100.00
2023-09-04T20:11:26.956Z,100.00
2023-09-04T20:16:32.842Z,100.00
2023-09-04T20:21:37.186Z,100.00
2023-09-04T20:26:49.125Z,100.00
2023-09-04T20:31:55.329Z,100.00
2023-09-04T20:37:00.773Z,100.00
2023-09-04T20:42:08.210Z,100.00
2023-09-04T20:47:13.714Z,100.00
2023-09-04T20:52:17.856Z,100.00
2023-09-04T20:57:21.830Z,100.00
2023-09-04T21:02:27.682Z,100.00
2023-09-04T21:07:30.551Z,100.00
2023-09-04T21:12:52.828Z,100.00
2023-09-04T21:18:15.693Z,100.00
2023-09-04T21:23:37.153Z,100.00
2023-09-04T21:28:58.621Z,100.00
2023-09-04T21:34:21.867Z,100.00
2023-09-04T21:39:43.285Z,100.00
2023-09-04T21:45:05.075Z,100.00
2023-09-04T21:50:28.424Z,100.00
2023-09-04T21:55:49.628Z,100.00
2023-09-04T22:01:11.382Z,100.00
2023-09-04T22:06:34.125Z,100.00
2023-09-04T22:11:55.636Z,100.00
2023-09-04T22:17:16.902Z,100.00
2023-09-04T22:22:40.080Z,100.00
2023-09-04T22:28:01.566Z,100.00
2023-09-04T22:33:24.336Z,100.00
2023-09-04T22:38:47.542Z,100.00
2023-09-04T22:44:09.278Z,100.00
2023-09-04T22:49:30.926Z,100.00
2023-09-04T22:54:53.840Z,100.00
2023-09-04T23:00:15.248Z,100.00
2023-09-04T23:05:36.801Z,100.00
2023-09-04T23:11:00.522Z,100.00
2023-09-04T23:16:22.207Z,100.00
2023-09-04T23:21:25.021Z,100.00
2023-09-04T23:26:38.350Z,100.00
2023-09-04T23:31:46.256Z,100.00
2023-09-04T23:36:55.981Z,100.00
2023-09-04T23:42:21.115Z,100.00
2023-09-04T23:47:25.291Z,100.00
2023-09-04T23:52:30.971Z,100.00
2023-09-04T23:57:37.747Z,100.00
